Time;durP1;ratioP1;P1;durP2;ratioP2;P2;SDS_P1;SDS_P2;PMS_P1;PMS_P2;Temp;Humidity;BMP_temperature;BMP_pressure;BME280_temperature;BME280_humidity;BME280_pressure;Samples;Min_cycle;Max_cycle;Signal;HPM_P1;HPM_P2
2021/11/01 00:00:11;;;;;;;;;;;21.10;58.90;;;;;;5053261;28;1351;-68
2021/11/01 00:02:36;;;;;;;;;;;21.10;59.50;;;;;;5034603;28;1353;-68
2021/11/01 00:05:02;;;;;;;;;;;21.10;58.90;;;;;;5053022;28;1906;-68
2021/11/01 00:07:27;;;;;;;;;;;21.10;58.90;;;;;;5053083;28;1279;-68
2021/11/01 00:09:53;;;;;;;;;;;21.10;59.00;;;;;;5053446;28;1342;-68
2021/11/01 00:12:19;;;;;;;;;;;21.10;59.00;;;;;;5052609;28;1391;-68
2021/11/01 00:14:44;;;;;;;;;;;21.10;59.00;;;;;;5052934;28;1323;-68
2021/11/01 00:17:10;;;;;;;;;;;21.10;59.00;;;;;;5034867;28;1374;-68
2021/11/01 00:19:35;;;;;;;;;;;21.10;59.00;;;;;;5052919;28;1315;-68
2021/11/01 00:22:01;;;;;;;;;;;21.10;59.10;;;;;;5052470;28;1223;-68
2021/11/01 00:24:26;;;;;;;;;;;21.10;59.10;;;;;;5034977;28;1961;-68
2021/11/01 00:26:52;;;;;;;;;;;21.00;59.00;;;;;;5052418;28;1299;-68
2021/11/01 00:29:17;;;;;;;;;;;21.10;59.10;;;;;;5052312;28;1280;-68
2021/11/01 00:31:42;;;;;;;;;;;21.00;59.10;;;;;;5052193;28;1354;-68
2021/11/01 00:34:08;;;;;;;;;;;21.00;59.10;;;;;;5052686;28;1302;-68
2021/11/01 00:36:33;;;;;;;;;;;21.00;59.10;;;;;;5052682;28;1359;-68
2021/11/01 00:38:59;;;;;;;;;;;21.00;59.20;;;;;;5052692;28;1276;-68
2021/11/01 00:41:24;;;;;;;;;;;21.00;59.20;;;;;;5052189;28;1299;-68
2021/11/01 00:43:50;;;;;;;;;;;21.00;59.20;;;;;;5052735;28;1971;-68
2021/11/01 00:46:15;;;;;;;;;;;21.00;59.20;;;;;;5034676;28;1312;-68
2021/11/01 00:48:41;;;;;;;;;;;21.00;59.20;;;;;;5053248;28;1405;-68
2021/11/01 00:51:06;;;;;;;;;;;21.00;59.20;;;;;;5053136;28;1279;-68
2021/11/01 00:53:34;;;;;;;;;;;21.00;59.20;;;;;;5053587;28;1235;-68
2021/11/01 00:56:00;;;;;;;;;;;21.00;59.30;;;;;;5052620;28;1331;-68
2021/11/01 00:58:25;;;;;;;;;;;21.00;59.30;;;;;;5052317;28;1300;-68
2021/11/01 01:00:51;;;;;;;;;;;21.00;59.30;;;;;;5052116;28;1354;-68
2021/11/01 01:03:16;;;;;;;;;;;21.00;59.30;;;;;;5051848;28;1898;-68
2021/11/01 01:05:43;;;;;;;;;;;21.00;59.40;;;;;;5034782;28;1369;-68
2021/11/01 01:08:09;;;;;;;;;;;20.90;59.30;;;;;;5052272;28;1196;-68
2021/11/01 01:10:34;;;;;;;;;;;21.00;59.40;;;;;;5052483;28;1308;-68
2021/11/01 01:13:00;;;;;;;;;;;20.90;59.40;;;;;;5052104;28;1331;-68
2021/11/01 01:15:27;;;;;;;;;;;20.90;59.40;;;;;;5052249;28;1336;-68
2021/11/01 01:17:59;;;;;;;;;;;20.90;59.40;;;;;;5034463;28;1368;-68
2021/11/01 01:20:24;;;;;;;;;;;20.90;59.40;;;;;;5031313;28;1344;-68
2021/11/01 01:22:50;;;;;;;;;;;20.90;59.40;;;;;;5046195;28;1275;-68
2021/11/01 01:25:30;;;;;;;;;;;20.90;59.40;;;;;;5052124;28;1961;-68
2021/11/01 01:27:56;;;;;;;;;;;20.90;59.40;;;;;;5036229;28;1358;-68
2021/11/01 01:30:21;;;;;;;;;;;20.90;59.40;;;;;;5052240;28;1270;-69
2021/11/01 01:32:47;;;;;;;;;;;20.90;59.40;;;;;;5033950;28;1350;-68
2021/11/01 01:35:13;;;;;;;;;;;20.90;59.50;;;;;;5052091;28;1302;-68
2021/11/01 01:37:38;;;;;;;;;;;20.90;59.50;;;;;;5051958;28;1303;-68
2021/11/01 01:40:06;;;;;;;;;;;20.90;59.50;;;;;;5055021;28;1295;-68
2021/11/01 01:42:32;;;;;;;;;;;20.90;59.50;;;;;;5054681;28;1378;-68
2021/11/01 01:44:57;;;;;;;;;;;20.90;59.60;;;;;;5034052;28;1890;-68
2021/11/01 01:47:23;;;;;;;;;;;20.90;59.60;;;;;;5051368;28;1284;-69
2021/11/01 01:49:48;;;;;;;;;;;20.90;59.50;;;;;;5055380;28;1380;-68
2021/11/01 01:52:13;;;;;;;;;;;20.90;59.60;;;;;;5055475;28;1650;-68
2021/11/01 01:54:39;;;;;;;;;;;20.90;59.60;;;;;;5037568;28;1563;-68
2021/11/01 01:57:04;;;;;;;;;;;20.90;59.60;;;;;;5055393;28;1320;-68
2021/11/01 01:59:30;;;;;;;;;;;20.90;59.60;;;;;;5037769;28;1294;-68
2021/11/01 02:01:56;;;;;;;;;;;20.80;59.60;;;;;;5036569;28;1365;-68
2021/11/01 02:04:23;;;;;;;;;;;20.90;59.60;;;;;;5055148;28;1977;-67
2021/11/01 02:07:08;;;;;;;;;;;20.80;59.60;;;;;;5037240;28;1221;-67
2021/11/01 02:09:43;;;;;;;;;;;20.90;59.60;;;;;;5054837;28;1241;-67
2021/11/01 02:12:09;;;;;;;;;;;20.80;59.60;;;;;;5054532;28;1578;-67
2021/11/01 02:14:45;;;;;;;;;;;20.80;59.70;;;;;;5037056;28;1288;-66
2021/11/01 02:17:14;;;;;;;;;;;20.80;59.70;;;;;;5036239;28;1328;-67
2021/11/01 02:19:48;;;;;;;;;;;20.80;59.70;;;;;;5054913;28;1295;-67
2021/11/01 02:22:21;;;;;;;;;;;20.80;59.70;;;;;;5034166;28;1404;-67
2021/11/01 02:24:53;;;;;;;;;;;20.80;59.70;;;;;;5054771;28;1914;-67
2021/11/01 02:27:18;;;;;;;;;;;20.80;59.80;;;;;;5054795;28;1236;-67
2021/11/01 02:29:44;;;;;;;;;;;20.80;59.80;;;;;;5054670;28;1248;-67
2021/11/01 02:32:10;;;;;;;;;;;20.80;59.70;;;;;;5054094;28;1315;-67
2021/11/01 02:34:35;;;;;;;;;;;20.80;59.80;;;;;;5036690;28;1326;-67
2021/11/01 02:37:01;;;;;;;;;;;20.80;59.80;;;;;;5054366;28;1205;-68
2021/11/01 02:39:26;;;;;;;;;;;20.80;59.80;;;;;;5054328;28;1446;-67
2021/11/01 02:41:52;;;;;;;;;;;20.80;59.80;;;;;;5053960;28;1299;-67
2021/11/01 02:44:21;;;;;;;;;;;20.80;59.80;;;;;;5054556;28;1909;-67
2021/11/01 02:46:47;;;;;;;;;;;20.80;59.80;;;;;;5055052;28;1273;-68
2021/11/01 02:49:12;;;;;;;;;;;20.80;59.80;;;;;;5055407;28;1355;-68
2021/11/01 02:51:40;;;;;;;;;;;20.80;59.80;;;;;;5054177;28;1477;-68
2021/11/01 02:54:06;;;;;;;;;;;20.70;59.80;;;;;;5054952;28;1367;-69
2021/11/01 02:56:32;;;;;;;;;;;20.80;59.80;;;;;;5054620;28;1314;-68
2021/11/01 02:58:57;;;;;;;;;;;20.80;59.80;;;;;;5054565;28;1410;-68
2021/11/01 03:01:23;;;;;;;;;;;20.70;59.80;;;;;;5054088;28;1346;-68
2021/11/01 03:03:48;;;;;;;;;;;20.80;59.90;;;;;;5054084;28;1918;-68
2021/11/01 03:06:18;;;;;;;;;;;20.80;59.90;;;;;;5054348;28;1331;-68
2021/11/01 03:08:43;;;;;;;;;;;20.80;59.90;;;;;;5036450;28;1261;-69
2021/11/01 03:11:09;;;;;;;;;;;20.70;59.90;;;;;;5036145;28;1346;-69
2021/11/01 03:13:35;;;;;;;;;;;20.70;59.90;;;;;;5036173;28;1399;-68
2021/11/01 03:16:01;;;;;;;;;;;20.70;59.90;;;;;;5054051;28;1174;-68
2021/11/01 03:18:29;;;;;;;;;;;20.70;59.90;;;;;;5053863;28;1273;-68
2021/11/01 03:20:55;;;;;;;;;;;20.70;59.90;;;;;;5032457;28;1352;-67
2021/11/01 03:23:27;;;;;;;;;;;20.80;60.00;;;;;;5035793;28;1906;-67
2021/11/01 03:26:02;;;;;;;;;;;20.70;59.90;;;;;;5036201;28;1372;-67
2021/11/01 03:28:29;;;;;;;;;;;20.70;59.90;;;;;;5036069;28;1306;-67
2021/11/01 03:30:56;;;;;;;;;;;20.70;59.90;;;;;;5035669;28;1306;-67
2021/11/01 03:33:22;;;;;;;;;;;20.70;59.90;;;;;;5036137;28;1347;-67
2021/11/01 03:35:47;;;;;;;;;;;20.70;60.00;;;;;;5036154;28;1362;-67
2021/11/01 03:38:13;;;;;;;;;;;20.70;60.00;;;;;;5053784;28;1326;-68
2021/11/01 03:40:41;;;;;;;;;;;20.70;60.00;;;;;;5053650;28;1331;-67
2021/11/01 03:43:07;;;;;;;;;;;20.70;60.00;;;;;;5053243;28;1977;-67
2021/11/01 03:45:33;;;;;;;;;;;20.70;60.00;;;;;;5035668;28;1292;-67
2021/11/01 03:48:04;;;;;;;;;;;20.70;60.00;;;;;;5035763;28;1346;-67
2021/11/01 03:50:40;;;;;;;;;;;20.70;60.00;;;;;;5053687;28;1330;-67
2021/11/01 03:53:06;;;;;;;;;;;20.70;60.10;;;;;;5036758;28;1368;-68
2021/11/01 03:55:31;;;;;;;;;;;20.70;60.00;;;;;;5035797;28;1347;-68
2021/11/01 03:57:57;;;;;;;;;;;20.70;60.00;;;;;;5053779;28;1272;-68
2021/11/01 04:00:24;;;;;;;;;;;20.70;60.10;;;;;;5035411;28;1009;-68
2021/11/01 04:02:49;;;;;;;;;;;20.70;60.10;;;;;;5052963;28;1285;-68
2021/11/01 04:05:15;;;;;;;;;;;20.70;60.10;;;;;;5035547;28;1955;-68
2021/11/01 04:07:40;;;;;;;;;;;20.70;60.10;;;;;;5053059;28;1450;-68
2021/11/01 04:10:07;;;;;;;;;;;20.70;60.10;;;;;;5053248;28;1168;-68
2021/11/01 04:12:33;;;;;;;;;;;20.70;60.20;;;;;;5052744;28;1344;-67
2021/11/01 04:15:11;;;;;;;;;;;20.70;60.10;;;;;;5053003;28;1396;-67
2021/11/01 04:22:44;;;;;;;;;;;20.60;60.10;;;;;;5052623;28;1370;-67
2021/11/01 04:25:09;;;;;;;;;;;20.60;60.10;;;;;;5052705;28;1955;-67
2021/11/01 04:27:35;;;;;;;;;;;20.60;60.10;;;;;;5052743;28;1268;-68
2021/11/01 04:30:01;;;;;;;;;;;20.70;60.20;;;;;;5053024;28;1347;-68
2021/11/01 04:32:35;;;;;;;;;;;20.60;60.10;;;;;;5052359;28;1425;-68
2021/11/01 04:35:05;;;;;;;;;;;20.60;60.10;;;;;;5036434;28;1361;-66
2021/11/01 04:37:31;;;;;;;;;;;20.70;60.20;;;;;;5052622;28;1275;-67
2021/11/01 04:42:46;;;;;;;;;;;20.60;60.20;;;;;;5053145;28;1287;-67
2021/11/01 04:53:27;;;;;;;;;;;20.60;60.20;;;;;;5052694;28;1332;-66
2021/11/01 04:55:53;;;;;;;;;;;20.60;60.20;;;;;;5052491;28;1411;-66
2021/11/01 04:58:18;;;;;;;;;;;20.60;60.20;;;;;;5052459;28;1387;-67
2021/11/01 05:00:44;;;;;;;;;;;20.70;60.30;;;;;;5034565;28;1514;-68
2021/11/01 05:05:47;;;;;;;;;;;20.70;60.30;;;;;;5054974;28;1226;-69
2021/11/01 05:08:14;;;;;;;;;;;20.70;60.30;;;;;;5036670;28;1357;-69
2021/11/01 05:10:42;;;;;;;;;;;20.70;60.30;;;;;;5055065;28;1336;-69
2021/11/01 05:13:18;;;;;;;;;;;20.60;60.30;;;;;;5054085;28;1224;-69
2021/11/01 05:20:54;;;;;;;;;;;20.60;60.30;;;;;;5059268;28;1319;-69
2021/11/01 05:25:58;;;;;;;;;;;20.60;60.40;;;;;;5060451;28;1287;-69
2021/11/01 05:28:41;;;;;;;;;;;20.60;60.30;;;;;;5057689;28;1204;-69
2021/11/01 05:31:14;;;;;;;;;;;20.60;60.30;;;;;;5056747;28;1373;-69
2021/11/01 05:34:01;;;;;;;;;;;20.60;60.30;;;;;;5056838;28;1419;-67
2021/11/01 05:36:26;;;;;;;;;;;20.60;60.30;;;;;;5057196;28;1361;-69
2021/11/01 05:38:52;;;;;;;;;;;20.60;60.30;;;;;;5056841;28;1346;-69
2021/11/01 05:41:17;;;;;;;;;;;20.70;60.40;;;;;;5056918;28;1422;-69
2021/11/01 05:43:43;;;;;;;;;;;20.60;60.30;;;;;;5056853;28;1960;-69
2021/11/01 05:46:08;;;;;;;;;;;20.60;60.20;;;;;;5039047;28;1361;-69
2021/11/01 05:48:35;;;;;;;;;;;20.70;60.20;;;;;;5056709;28;1344;-69
2021/11/01 05:51:01;;;;;;;;;;;20.70;60.20;;;;;;5055787;28;1311;-70
2021/11/01 05:53:32;;;;;;;;;;;20.70;60.10;;;;;;5055698;28;1300;-69
2021/11/01 05:58:33;;;;;;;;;;;20.80;60.00;;;;;;5055840;28;1311;-70
2021/11/01 06:03:57;;;;;;;;;;;20.80;59.80;;;;;;5043318;28;1918;-70
2021/11/01 06:14:30;;;;;;;;;;;20.90;59.60;;;;;;5035422;28;1265;-70
2021/11/01 06:16:55;;;;;;;;;;;20.90;59.50;;;;;;5059123;28;1264;-70
2021/11/01 06:19:21;;;;;;;;;;;20.90;59.50;;;;;;5040929;28;1318;-70
2021/11/01 06:21:48;;;;;;;;;;;21.00;59.50;;;;;;5058423;28;1312;-70
2021/11/01 06:26:51;;;;;;;;;;;21.00;59.40;;;;;;5058677;28;1232;-70
2021/11/01 06:29:19;;;;;;;;;;;21.00;59.30;;;;;;5065237;28;1330;-68
2021/11/01 06:31:56;;;;;;;;;;;21.00;59.30;;;;;;5067065;28;1364;-68
2021/11/01 06:34:45;;;;;;;;;;;21.00;59.20;;;;;;5066879;28;1311;-66
2021/11/01 06:40:12;;;;;;;;;;;21.10;59.20;;;;;;5058854;28;1160;-69
2021/11/01 06:51:03;;;;;;;;;;;21.10;59.20;;;;;;5009350;28;1294;-69
2021/11/01 07:15:39;;;;;;;;;;;21.10;59.00;;;;;;5055979;28;1079;-70
2021/11/01 07:18:46;;;;;;;;;;;21.10;59.00;;;;;;5056118;28;1306;-70
2021/11/01 08:23:30;;;;;;;;;;;21.80;57.80;;;;;;5052947;28;1953;-67
2021/11/01 08:29:06;;;;;;;;;;;22.00;57.60;;;;;;5052939;28;1137;-68
2021/11/01 08:48:05;;;;;;;;;;;22.20;57.00;;;;;;5052358;28;1308;-67
2021/11/01 08:50:41;;;;;;;;;;;22.30;56.90;;;;;;5039248;28;1414;-67
2021/11/01 09:01:41;;;;;;;;;;;22.40;56.80;;;;;;5052225;28;1351;-67
2021/11/01 09:04:37;;;;;;;;;;;22.40;56.80;;;;;;5052713;28;1918;-67
2021/11/01 09:20:21;;;;;;;;;;;22.40;56.60;;;;;;5052318;28;1433;-68
2021/11/01 09:35:59;;;;;;;;;;;22.40;56.60;;;;;;5037220;28;1265;-67
2021/11/01 09:43:25;;;;;;;;;;;22.40;56.70;;;;;;5051807;28;1898;-67
2021/11/01 09:45:54;;;;;;;;;;;22.40;56.70;;;;;;5051800;28;1240;-67
2021/11/01 09:48:20;;;;;;;;;;;22.40;56.70;;;;;;5051770;28;1458;-67
2021/11/01 09:50:45;;;;;;;;;;;22.40;56.80;;;;;;5033899;28;1324;-66
2021/11/01 09:53:18;;;;;;;;;;;22.40;56.80;;;;;;5033992;28;1294;-66
2021/11/01 10:01:12;;;;;;;;;;;22.30;56.90;;;;;;5051331;28;1235;-67
2021/11/01 10:03:42;;;;;;;;;;;22.30;57.00;;;;;;5036647;28;1910;-67
2021/11/01 10:06:08;;;;;;;;;;;22.30;57.00;;;;;;5055398;28;1333;-67
2021/11/01 10:08:33;;;;;;;;;;;22.30;57.00;;;;;;5037372;28;1273;-67
2021/11/01 10:10:59;;;;;;;;;;;22.30;57.10;;;;;;5055022;28;1288;-67
2021/11/01 10:13:25;;;;;;;;;;;22.30;57.10;;;;;;5037279;28;1360;-68
2021/11/01 10:18:43;;;;;;;;;;;22.20;57.20;;;;;;5040320;28;1286;-67
2021/11/01 10:21:08;;;;;;;;;;;22.20;57.20;;;;;;5054830;28;1310;-67
2021/11/01 10:23:33;;;;;;;;;;;22.20;57.30;;;;;;5054720;28;1894;-67
2021/11/01 10:26:05;;;;;;;;;;;22.20;57.30;;;;;;5054706;28;1348;-67
2021/11/01 10:28:30;;;;;;;;;;;22.20;57.30;;;;;;5053472;28;1303;-67
2021/11/01 10:31:06;;;;;;;;;;;22.20;57.40;;;;;;5036141;28;1303;-67
2021/11/01 10:33:43;;;;;;;;;;;22.10;57.40;;;;;;5037406;28;1283;-67
2021/11/01 10:36:09;;;;;;;;;;;22.20;57.50;;;;;;5055531;28;1249;-67
2021/11/01 10:38:37;;;;;;;;;;;22.10;57.40;;;;;;5049279;28;1973;-68
2021/11/01 11:11:31;;;;;;;;;;;22.40;57.10;;;;;;5054217;28;1170;-67
2021/11/01 11:13:42;;;;;;;;;;;22.40;57.10;;;;;;5016396;28;1375;-67
2021/11/01 11:16:09;;;;;;;;;;;22.40;57.00;;;;;;5037455;28;1166;-67
2021/11/01 11:21:15;;;;;;;;;;;22.40;57.00;;;;;;5032927;28;1287;-67
2021/11/01 11:24:29;;;;;;;;;;;22.40;57.00;;;;;;5026648;28;1959;-67
2021/11/01 11:27:10;;;;;;;;;;;22.40;57.00;;;;;;5041058;28;1201;-67
2021/11/01 11:30:07;;;;;;;;;;;22.40;57.00;;;;;;5053570;28;1494;-67
2021/11/01 11:32:52;;;;;;;;;;;22.40;57.00;;;;;;5040439;28;1353;-67
2021/11/01 11:38:37;;;;;;;;;;;22.40;57.00;;;;;;4965156;28;1407;-67
2021/11/01 11:42:15;;;;;;;;;;;22.40;57.00;;;;;;5022384;28;1321;-67
2021/11/01 11:46:58;;;;;;;;;;;22.40;57.10;;;;;;5053436;28;1957;-67
2021/11/01 11:47:09;;;;;;;;;;;22.40;57.10;;;;;;5053458;28;1319;-67
2021/11/01 11:49:35;;;;;;;;;;;22.40;57.10;;;;;;5053694;28;1299;-67
2021/11/01 11:52:12;;;;;;;;;;;22.40;57.10;;;;;;5053268;28;1315;-68
2021/11/01 11:54:52;;;;;;;;;;;22.40;57.10;;;;;;5050782;28;1267;-68
2021/11/01 11:57:29;;;;;;;;;;;22.40;57.20;;;;;;5035643;28;1423;-68
2021/11/01 11:59:55;;;;;;;;;;;22.40;57.20;;;;;;5053362;28;1237;-68
2021/11/01 12:02:38;;;;;;;;;;;22.30;57.20;;;;;;5052877;28;1315;-68
2021/11/01 12:05:19;;;;;;;;;;;22.30;57.20;;;;;;5036905;28;1958;-68
2021/11/01 12:07:46;;;;;;;;;;;22.30;57.30;;;;;;5053147;28;1347;-68
2021/11/01 12:10:12;;;;;;;;;;;22.30;57.30;;;;;;5052852;28;1229;-68
2021/11/01 12:17:54;;;;;;;;;;;22.30;57.40;;;;;;5052978;28;1257;-68
2021/11/01 12:20:21;;;;;;;;;;;22.30;57.40;;;;;;5052807;28;1287;-68
2021/11/01 12:22:47;;;;;;;;;;;22.30;57.40;;;;;;5035222;28;2349;-68
2021/11/01 12:25:14;;;;;;;;;;;22.30;57.40;;;;;;5052779;28;1898;-68
2021/11/01 12:27:43;;;;;;;;;;;22.30;57.40;;;;;;5035428;28;1291;-67
2021/11/01 12:30:09;;;;;;;;;;;22.40;57.40;;;;;;5035291;28;1388;-67
2021/11/01 12:32:38;;;;;;;;;;;22.40;57.30;;;;;;5052505;28;1273;-67
2021/11/01 12:35:08;;;;;;;;;;;22.40;57.30;;;;;;5034697;28;1272;-67
2021/11/01 12:37:38;;;;;;;;;;;22.40;57.30;;;;;;5052842;28;1407;-67
2021/11/01 12:42:52;;;;;;;;;;;22.40;57.20;;;;;;5052212;28;1327;-68
2021/11/01 12:48:27;;;;;;;;;;;22.40;57.60;;;;;;5053108;28;1001;-67
2021/11/01 12:56:59;;;;;;;;;;;22.50;57.50;;;;;;5052582;28;1277;-67
2021/11/01 12:57:07;;;;;;;;;;;22.50;57.40;;;;;;5037277;28;1501;-67
2021/11/01 12:59:43;;;;;;;;;;;22.50;57.40;;;;;;5037729;28;1221;-67
2021/11/01 13:02:29;;;;;;;;;;;22.50;57.30;;;;;;5051868;28;1310;-67
2021/11/01 13:04:57;;;;;;;;;;;22.50;57.90;;;;;;5052418;28;1898;-66
2021/11/01 13:10:08;;;;;;;;;;;22.50;57.20;;;;;;5052568;28;1292;-66
2021/11/01 13:12:52;;;;;;;;;;;22.50;57.20;;;;;;5052118;28;1418;-67
2021/11/01 13:20:33;;;;;;;;;;;22.50;57.30;;;;;;5031066;28;1289;-67
2021/11/01 13:22:59;;;;;;;;;;;22.50;57.30;;;;;;5033831;28;1303;-67
2021/11/01 13:25:35;;;;;;;;;;;22.50;57.90;;;;;;5052105;28;1959;-67
2021/11/01 13:36:44;;;;;;;;;;;22.40;57.40;;;;;;5056184;28;1331;-67
2021/11/01 13:39:11;;;;;;;;;;;22.40;58.00;;;;;;5038017;28;1348;-67
2021/11/01 13:41:44;;;;;;;;;;;22.40;57.50;;;;;;5055696;28;1359;-66
2021/11/01 13:44:11;;;;;;;;;;;22.40;57.50;;;;;;5038075;28;1891;-67
2021/11/01 13:46:46;;;;;;;;;;;22.30;57.50;;;;;;5056011;28;1280;-66
2021/11/01 13:49:13;;;;;;;;;;;22.30;57.50;;;;;;5055827;28;1326;-67
2021/11/01 13:51:38;;;;;;;;;;;22.30;57.60;;;;;;5055439;28;1390;-67
2021/11/01 13:54:09;;;;;;;;;;;22.30;57.60;;;;;;5037067;28;1391;-67
2021/11/01 13:56:45;;;;;;;;;;;22.30;57.60;;;;;;5039240;28;1249;-67
2021/11/01 13:59:24;;;;;;;;;;;22.30;57.70;;;;;;5038639;28;1204;-66
2021/11/01 14:02:07;;;;;;;;;;;22.30;57.70;;;;;;5039373;28;1261;-67
2021/11/01 14:12:57;;;;;;;;;;;22.20;57.80;;;;;;5054990;28;1306;-69
2021/11/01 14:32:32;;;;;;;;;;;22.10;58.00;;;;;;5055068;28;1324;-68
2021/11/01 14:59:09;;;;;;;;;;;22.00;58.20;;;;;;5054763;28;1368;-69
2021/11/01 15:05:01;;;;;;;;;;;22.00;58.30;;;;;;5054280;28;1973;-68
2021/11/01 15:10:09;;;;;;;;;;;22.00;58.30;;;;;;5054610;28;1304;-67
2021/11/01 15:15:27;;;;;;;;;;;22.00;58.30;;;;;;5054167;28;1354;-69
2021/11/01 15:17:58;;;;;;;;;;;21.90;58.30;;;;;;5054292;28;1253;-69
2021/11/01 15:20:34;;;;;;;;;;;21.90;58.40;;;;;;5054235;28;1372;-69
2021/11/01 15:39:05;;;;;;;;;;;21.90;58.50;;;;;;5053943;28;1501;-68
2021/11/01 16:19:49;;;;;;;;;;;21.80;58.80;;;;;;5052798;28;1350;-69
2021/11/01 16:22:17;;;;;;;;;;;21.70;58.80;;;;;;5035581;28;1278;-68
2021/11/01 16:24:42;;;;;;;;;;;21.70;58.80;;;;;;5052847;28;1967;-68
2021/11/01 16:27:08;;;;;;;;;;;21.80;59.00;;;;;;5053069;28;1337;-67
2021/11/01 16:29:59;;;;;;;;;;;21.70;58.90;;;;;;5052909;28;1373;-67
2021/11/01 16:32:27;;;;;;;;;;;21.70;58.90;;;;;;5052063;28;1353;-67
2021/11/01 16:34:55;;;;;;;;;;;21.70;58.90;;;;;;5035002;28;1181;-67
2021/11/01 16:37:35;;;;;;;;;;;21.70;58.90;;;;;;5035293;28;1288;-68
2021/11/01 16:40:05;;;;;;;;;;;21.70;58.90;;;;;;5050039;28;1939;-68
2021/11/01 16:42:33;;;;;;;;;;;21.70;58.90;;;;;;5030614;28;1378;-67
2021/11/01 16:45:04;;;;;;;;;;;21.70;59.00;;;;;;5048397;28;1902;-68
2021/11/01 16:47:30;;;;;;;;;;;21.70;59.00;;;;;;5052736;28;1260;-68
2021/11/01 16:49:55;;;;;;;;;;;21.70;59.00;;;;;;5034958;28;1162;-69
2021/11/01 16:52:21;;;;;;;;;;;21.70;59.00;;;;;;5052247;28;1390;-69
2021/11/01 16:54:50;;;;;;;;;;;21.70;59.00;;;;;;5052455;28;1601;-68
2021/11/01 16:57:20;;;;;;;;;;;21.70;59.00;;;;;;5052508;28;1372;-68
2021/11/01 17:00:00;;;;;;;;;;;21.70;59.00;;;;;;5053127;28;1292;-68
2021/11/01 17:05:17;;;;;;;;;;;21.70;59.10;;;;;;5047215;28;1967;-68
2021/11/01 17:26:29;;;;;;;;;;;21.60;59.10;;;;;;5050838;28;1147;-67
2021/11/01 17:36:56;;;;;;;;;;;21.60;59.20;;;;;;5056153;28;1385;-67
2021/11/01 18:37:59;;;;;;;;;;;21.50;59.30;;;;;;5039816;28;1318;-71
2021/11/01 18:40:25;;;;;;;;;;;21.50;59.30;;;;;;5044546;28;1355;-68
2021/11/01 18:53:20;;;;;;;;;;;21.50;59.30;;;;;;5040780;28;1414;-67
2021/11/01 18:55:53;;;;;;;;;;;21.50;59.40;;;;;;5034866;28;1512;-69
2021/11/01 18:58:22;;;;;;;;;;;21.50;59.40;;;;;;5050757;28;1158;-68
2021/11/01 19:00:47;;;;;;;;;;;21.50;59.40;;;;;;5033062;28;1499;-69
2021/11/01 19:03:15;;;;;;;;;;;21.50;59.40;;;;;;5035567;28;1410;-67
2021/11/01 19:05:50;;;;;;;;;;;21.50;59.40;;;;;;5034405;28;1914;-68
2021/11/01 19:11:09;;;;;;;;;;;21.50;59.40;;;;;;5041039;28;1399;-69
2021/11/01 20:02:45;;;;;;;;;;;21.50;59.40;;;;;;5034661;28;1706;-69
2021/11/01 20:05:43;;;;;;;;;;;21.40;59.40;;;;;;5037894;28;1906;-69
2021/11/01 20:08:36;;;;;;;;;;;21.40;59.40;;;;;;5052958;28;1567;-69
2021/11/01 21:24:50;;;;;;;;;;;21.30;59.50;;;;;;5052385;28;1894;-69
2021/11/01 21:27:21;;;;;;;;;;;21.30;59.50;;;;;;5052360;28;1706;-70
2021/11/01 21:29:47;;;;;;;;;;;21.30;59.50;;;;;;5052378;28;1589;-69
2021/11/01 21:32:12;;;;;;;;;;;21.30;59.50;;;;;;5051675;28;1657;-69
2021/11/01 21:34:41;;;;;;;;;;;21.30;59.50;;;;;;5052386;28;1362;-69
2021/11/01 21:37:07;;;;;;;;;;;21.30;59.50;;;;;;5052657;28;1742;-69
2021/11/01 21:39:33;;;;;;;;;;;21.30;59.60;;;;;;5052238;28;1418;-70
2021/11/01 21:41:58;;;;;;;;;;;21.30;59.60;;;;;;5047492;28;1457;-69
2021/11/01 21:44:24;;;;;;;;;;;21.30;59.50;;;;;;5046185;28;1894;-68
2021/11/01 21:46:49;;;;;;;;;;;21.30;59.60;;;;;;5051722;28;1682;-69
2021/11/01 21:49:15;;;;;;;;;;;21.30;59.50;;;;;;5035719;28;1598;-70
2021/11/01 21:51:42;;;;;;;;;;;21.30;59.50;;;;;;5039482;28;1393;-69
2021/11/01 21:56:48;;;;;;;;;;;21.30;59.60;;;;;;5054076;28;1446;-69
2021/11/01 22:18:06;;;;;;;;;;;21.30;59.70;;;;;;5040585;28;1372;-68
2021/11/01 22:20:35;;;;;;;;;;;21.30;59.60;;;;;;5054830;28;1391;-69
2021/11/01 22:42:20;;;;;;;;;;;21.20;59.80;;;;;;5052639;28;1298;-70
2021/11/01 22:55:41;;;;;;;;;;;21.20;59.90;;;;;;5054441;28;1542;-69
2021/11/01 22:58:07;;;;;;;;;;;21.20;59.90;;;;;;5042791;28;1352;-70
2021/11/01 23:00:49;;;;;;;;;;;21.20;59.90;;;;;;5064671;28;1243;-69
2021/11/01 23:03:20;;;;;;;;;;;21.20;59.90;;;;;;5039480;28;1459;-69
2021/11/01 23:33:27;;;;;;;;;;;21.10;60.20;;;;;;5053837;28;1386;-69
2021/11/01 23:35:54;;;;;;;;;;;21.10;60.20;;;;;;5054054;28;1405;-68
2021/11/01 23:38:19;;;;;;;;;;;21.10;60.30;;;;;;5053640;28;1328;-69
2021/11/01 23:40:45;;;;;;;;;;;21.00;60.20;;;;;;5035631;28;1533;-69
2021/11/01 23:43:13;;;;;;;;;;;21.00;60.30;;;;;;5035631;28;1334;-68
2021/11/01 23:45:42;;;;;;;;;;;21.00;60.30;;;;;;5053208;28;1903;-69
2021/11/01 23:48:07;;;;;;;;;;;21.00;60.30;;;;;;5053552;28;1282;-69
2021/11/01 23:50:34;;;;;;;;;;;21.00;60.30;;;;;;5035634;28;1333;-69
2021/11/01 23:53:06;;;;;;;;;;;21.00;60.30;;;;;;5053206;28;1345;-69
2021/11/01 23:55:32;;;;;;;;;;;21.00;60.40;;;;;;5053712;28;1325;-69
2021/11/01 23:57:57;;;;;;;;;;;21.00;60.40;;;;;;5053347;28;1347;-69
